createdAt,value
2019-03-15T00:01:30.430Z,3.30
2019-03-15T00:03:58.535Z,3.80
2019-03-15T00:06:26.693Z,3.07
2019-03-15T00:08:54.736Z,2.20
2019-03-15T00:11:22.824Z,2.40
2019-03-15T00:13:50.895Z,2.90
2019-03-15T00:16:19.446Z,2.20
2019-03-15T00:18:47.681Z,2.20
2019-03-15T00:21:15.730Z,1.93
2019-03-15T00:23:43.893Z,3.03
2019-03-15T00:26:12.018Z,2.67
2019-03-15T00:28:40.179Z,2.27
2019-03-15T00:31:08.373Z,2.60
2019-03-15T00:33:36.539Z,3.00
2019-03-15T00:36:04.690Z,2.43
2019-03-15T00:38:32.813Z,2.47
2019-03-15T00:41:00.902Z,2.60
2019-03-15T00:43:29.027Z,3.23
2019-03-15T00:45:57.406Z,2.30
2019-03-15T00:48:25.529Z,2.30
2019-03-15T00:50:54.707Z,2.40
2019-03-15T00:53:22.828Z,2.50
2019-03-15T00:55:51.003Z,2.77
2019-03-15T00:58:19.200Z,2.53
2019-03-15T01:00:47.471Z,2.77
2019-03-15T01:03:15.588Z,2.30
2019-03-15T01:05:43.735Z,2.90
2019-03-15T01:08:11.934Z,2.63
2019-03-15T01:10:40.111Z,3.10
2019-03-15T01:13:08.218Z,2.70
2019-03-15T01:15:36.461Z,3.20
2019-03-15T01:18:04.730Z,3.10
2019-03-15T01:20:33.032Z,2.70
2019-03-15T01:23:01.103Z,3.00
2019-03-15T01:25:29.150Z,2.50
2019-03-15T01:27:57.222Z,3.50
2019-03-15T01:30:25.333Z,2.50
2019-03-15T01:32:53.383Z,3.17
2019-03-15T01:35:22.739Z,2.97
2019-03-15T01:37:50.839Z,2.47
2019-03-15T01:40:19.096Z,2.60
2019-03-15T01:42:47.899Z,3.40
2019-03-15T01:45:16.130Z,3.00
2019-03-15T01:47:44.212Z,3.53
2019-03-15T01:50:12.368Z,2.73
2019-03-15T01:52:40.566Z,2.60
2019-03-15T01:55:08.666Z,2.80
2019-03-15T01:57:36.947Z,3.20
2019-03-15T02:00:06.616Z,3.10
2019-03-15T02:02:34.736Z,2.93
2019-03-15T02:05:03.050Z,3.37
2019-03-15T02:07:31.170Z,4.27
2019-03-15T02:09:59.364Z,2.63
2019-03-15T02:12:27.463Z,3.33
2019-03-15T02:14:55.612Z,2.50
2019-03-15T02:17:23.819Z,2.90
2019-03-15T02:19:51.908Z,2.77
2019-03-15T02:22:20.012Z,3.37
2019-03-15T02:24:48.225Z,2.87
2019-03-15T02:27:16.302Z,3.10
2019-03-15T02:29:44.367Z,2.47
2019-03-15T02:32:12.930Z,2.70
2019-03-15T02:34:41.346Z,2.53
2019-03-15T02:37:09.446Z,2.83
2019-03-15T02:39:37.602Z,2.67
2019-03-15T02:42:06.059Z,2.60
2019-03-15T02:44:34.208Z,2.57
2019-03-15T02:47:02.372Z,3.03
2019-03-15T02:49:30.571Z,2.47
2019-03-15T02:51:58.741Z,3.23
2019-03-15T02:54:27.405Z,3.47
2019-03-15T02:56:55.781Z,2.70
2019-03-15T02:59:23.829Z,2.93
2019-03-15T03:01:51.845Z,2.53
2019-03-15T03:04:19.939Z,2.73
2019-03-15T03:06:48.036Z,3.00
2019-03-15T03:09:16.186Z,2.70
2019-03-15T03:11:44.320Z,2.83
2019-03-15T03:14:12.370Z,3.47
2019-03-15T03:16:40.379Z,3.17
2019-03-15T03:19:08.464Z,3.30
2019-03-15T03:21:36.670Z,2.60
2019-03-15T03:24:04.879Z,2.60
2019-03-15T03:26:33.288Z,2.97
2019-03-15T03:29:02.445Z,3.50
2019-03-15T03:31:30.641Z,2.20
2019-03-15T03:33:58.683Z,2.43
2019-03-15T03:36:26.742Z,2.70
2019-03-15T03:38:54.861Z,2.93
2019-03-15T03:41:23.241Z,2.33
2019-03-15T03:43:51.556Z,2.37
2019-03-15T03:46:19.768Z,2.33
2019-03-15T03:48:47.834Z,2.93
2019-03-15T03:51:15.899Z,2.63
2019-03-15T03:53:44.015Z,2.77
2019-03-15T03:56:12.079Z,3.23
2019-03-15T03:58:40.209Z,3.40
2019-03-15T04:01:08.307Z,2.70
2019-03-15T04:03:36.508Z,3.07
2019-03-15T04:06:04.691Z,2.70
2019-03-15T04:08:32.916Z,2.93
2019-03-15T04:11:01.083Z,3.40
2019-03-15T04:13:29.214Z,2.93
2019-03-15T04:15:57.577Z,3.67
2019-03-15T04:18:25.769Z,3.20
2019-03-15T04:20:54.226Z,3.00
2019-03-15T04:23:22.354Z,3.60
2019-03-15T04:25:50.509Z,2.73
2019-03-15T04:28:18.839Z,2.80
2019-03-15T04:30:46.978Z,3.30
2019-03-15T04:33:15.119Z,3.40
2019-03-15T04:35:43.283Z,3.73
2019-03-15T04:38:11.392Z,3.73
2019-03-15T04:40:39.467Z,4.13
2019-03-15T04:43:07.496Z,5.17
2019-03-15T04:45:35.546Z,4.33
2019-03-15T04:48:03.687Z,6.13
2019-03-15T04:50:31.755Z,5.70
2019-03-15T04:52:59.881Z,6.30
2019-03-15T04:55:28.004Z,6.33
2019-03-15T04:57:56.416Z,6.53
2019-03-15T05:00:24.509Z,7.00
2019-03-15T05:02:52.546Z,6.40
2019-03-15T05:05:20.752Z,6.73
2019-03-15T05:07:48.917Z,7.00
2019-03-15T05:10:16.944Z,6.07
2019-03-15T05:12:45.049Z,7.33
2019-03-15T05:15:13.172Z,6.73
2019-03-15T05:17:41.320Z,6.37
2019-03-15T05:20:09.471Z,6.83
2019-03-15T05:22:37.627Z,7.40
2019-03-15T05:25:06.127Z,6.00
2019-03-15T05:27:34.141Z,7.27
2019-03-15T05:30:02.278Z,6.20
2019-03-15T05:32:33.187Z,7.10
2019-03-15T05:35:01.205Z,6.63
2019-03-15T05:37:29.325Z,6.17
2019-03-15T05:39:57.437Z,6.43
2019-03-15T05:42:25.499Z,6.80
2019-03-15T05:44:53.608Z,8.10
2019-03-15T05:47:21.669Z,6.93
2019-03-15T05:49:49.705Z,7.73
2019-03-15T05:52:17.835Z,7.57
2019-03-15T05:54:45.961Z,8.63
2019-03-15T05:57:14.089Z,8.90
2019-03-15T05:59:42.235Z,8.37
2019-03-15T06:02:10.365Z,7.80
2019-03-15T06:04:38.548Z,8.73
2019-03-15T06:07:06.601Z,9.00
2019-03-15T06:09:34.762Z,8.33
2019-03-15T06:12:03.031Z,7.97
2019-03-15T06:14:31.043Z,8.27
2019-03-15T06:17:00.221Z,8.23
2019-03-15T06:19:28.222Z,7.80
2019-03-15T06:21:56.422Z,8.23
2019-03-15T06:24:24.502Z,7.90
2019-03-15T06:26:52.544Z,8.10
2019-03-15T06:29:20.864Z,8.10
2019-03-15T06:31:49.987Z,7.80
2019-03-15T06:34:17.995Z,8.30
2019-03-15T06:36:46.135Z,8.47
2019-03-15T06:39:14.229Z,7.23
2019-03-15T06:41:43.579Z,7.30
2019-03-15T06:44:11.796Z,7.67
2019-03-15T06:46:39.883Z,6.93
2019-03-15T06:49:07.967Z,7.67
2019-03-15T06:51:38.442Z,8.00
2019-03-15T06:54:11.502Z,7.90
2019-03-15T06:56:36.535Z,6.13
2019-03-15T06:59:04.601Z,7.23
2019-03-15T07:01:32.677Z,7.13
2019-03-15T07:04:00.766Z,6.97
2019-03-15T07:06:28.970Z,6.40
2019-03-15T07:08:57.161Z,7.23
2019-03-15T07:11:25.222Z,7.17
2019-03-15T07:13:53.381Z,6.40
2019-03-15T07:16:21.482Z,6.63
2019-03-15T07:18:49.635Z,7.23
2019-03-15T07:21:17.786Z,6.77
2019-03-15T07:23:46.112Z,7.07
2019-03-15T07:26:14.304Z,6.67
2019-03-15T07:28:42.441Z,7.37
2019-03-15T07:31:10.552Z,6.80
2019-03-15T07:33:38.736Z,6.70
2019-03-15T07:36:06.821Z,7.27
2019-03-15T07:38:34.925Z,7.00
2019-03-15T07:41:03.013Z,7.00
2019-03-15T07:43:31.046Z,6.47
2019-03-15T07:45:59.151Z,7.20
2019-03-15T07:48:27.232Z,6.97
2019-03-15T07:50:55.480Z,8.30
2019-03-15T07:53:23.708Z,7.30
2019-03-15T07:55:51.829Z,7.53
2019-03-15T07:58:19.971Z,8.57
2019-03-15T08:00:49.853Z,7.93
2019-03-15T08:03:19.016Z,6.93
2019-03-15T08:05:47.208Z,7.67
2019-03-15T08:08:15.320Z,7.67
2019-03-15T08:10:43.496Z,7.20
2019-03-15T08:13:11.870Z,7.60
2019-03-15T08:15:40.039Z,7.33
2019-03-15T08:18:08.463Z,8.10
2019-03-15T08:20:38.238Z,8.67
2019-03-15T08:23:08.581Z,9.37
2019-03-15T08:25:56.498Z,8.30
2019-03-15T08:28:24.668Z,9.00
2019-03-15T08:30:53.774Z,8.43
2019-03-15T08:33:21.880Z,9.13
2019-03-15T08:35:50.013Z,8.80
2019-03-15T08:38:18.134Z,8.93
2019-03-15T08:40:46.253Z,7.97
2019-03-15T08:43:14.282Z,8.20
2019-03-15T08:45:42.281Z,8.60
2019-03-15T08:48:10.345Z,7.80
2019-03-15T08:50:38.499Z,8.40
2019-03-15T08:53:06.528Z,8.53
2019-03-15T08:55:36.084Z,9.23
2019-03-15T08:58:14.328Z,9.17
2019-03-15T09:00:34.837Z,9.53
2019-03-15T09:03:03.025Z,9.23
2019-03-15T09:05:31.390Z,9.07
2019-03-15T09:07:59.558Z,9.50
2019-03-15T09:10:27.603Z,9.20
2019-03-15T09:12:55.901Z,8.70
2019-03-15T09:15:24.050Z,9.53
2019-03-15T09:17:52.168Z,9.97
2019-03-15T09:20:20.212Z,9.63
2019-03-15T09:22:48.296Z,10.20
2019-03-15T09:25:19.984Z,11.00
2019-03-15T09:27:46.936Z,10.63
2019-03-15T09:30:23.157Z,10.77
2019-03-15T09:32:45.531Z,10.87
2019-03-15T09:35:13.580Z,10.57
2019-03-15T09:37:41.628Z,10.83
2019-03-15T09:40:10.209Z,10.27
2019-03-15T09:42:38.384Z,10.10
2019-03-15T09:45:07.809Z,9.73
2019-03-15T09:47:35.977Z,9.13
2019-03-15T09:50:04.770Z,9.87
2019-03-15T09:52:32.853Z,9.30
2019-03-15T09:55:00.914Z,8.53
2019-03-15T09:57:29.014Z,7.80
2019-03-15T09:59:57.627Z,7.70
2019-03-15T10:02:30.708Z,7.60
2019-03-15T10:05:09.760Z,7.97
2019-03-15T10:07:37.737Z,7.60
2019-03-15T10:09:56.522Z,8.10
2019-03-15T10:12:24.848Z,7.67
2019-03-15T10:14:52.973Z,7.67
2019-03-15T10:17:23.179Z,7.07
2019-03-15T10:19:51.675Z,7.27
2019-03-15T10:22:20.801Z,6.27
2019-03-15T10:24:51.094Z,6.00
2019-03-15T10:27:28.418Z,6.77
2019-03-15T10:29:57.191Z,6.77
2019-03-15T10:32:26.167Z,6.70
2019-03-15T10:34:54.681Z,6.87
2019-03-15T10:37:23.704Z,6.10
2019-03-15T10:39:52.788Z,7.20
2019-03-15T10:42:21.812Z,6.60
2019-03-15T10:44:50.926Z,6.97
2019-03-15T10:47:19.580Z,6.90
2019-03-15T10:49:58.826Z,6.37
2019-03-15T10:52:28.064Z,7.47
2019-03-15T10:54:56.662Z,7.13
2019-03-15T10:57:28.265Z,7.90
2019-03-15T10:59:57.884Z,7.83
2019-03-15T11:02:28.935Z,7.77
2019-03-15T11:04:57.651Z,7.73
2019-03-15T11:07:26.904Z,8.60
2019-03-15T11:09:56.745Z,8.20
2019-03-15T11:12:25.597Z,7.37
2019-03-15T11:14:54.194Z,7.77
2019-03-15T11:17:25.438Z,7.17
2019-03-15T11:19:54.426Z,7.63
2019-03-15T11:22:25.636Z,8.20
2019-03-15T11:24:54.126Z,8.10
2019-03-15T11:27:25.134Z,8.60
2019-03-15T11:29:53.900Z,8.13
2019-03-15T11:32:22.646Z,10.00
2019-03-15T11:34:51.616Z,10.63
2019-03-15T11:37:21.469Z,9.40
2019-03-15T11:39:50.405Z,10.53
2019-03-15T11:42:18.974Z,10.57
2019-03-15T11:44:47.164Z,11.40
2019-03-15T11:47:16.701Z,10.83
2019-03-15T11:49:44.942Z,9.97
2019-03-15T11:52:13.134Z,10.17
2019-03-15T11:54:41.244Z,11.27
2019-03-15T11:57:09.367Z,10.57
2019-03-15T11:59:37.594Z,10.80
2019-03-15T12:02:05.826Z,9.93
2019-03-15T12:04:34.025Z,9.63
2019-03-15T12:07:02.118Z,9.77
2019-03-15T12:09:30.474Z,9.53
2019-03-15T12:11:58.614Z,8.83
2019-03-15T12:14:40.211Z,9.40
2019-03-15T12:16:56.622Z,9.23
2019-03-15T12:19:25.141Z,9.80
2019-03-15T12:22:05.576Z,8.43
2019-03-15T12:24:23.296Z,8.63
2019-03-15T12:26:51.424Z,7.67
2019-03-15T12:29:19.629Z,7.93
2019-03-15T12:31:47.693Z,7.27
2019-03-15T12:34:16.133Z,6.90
2019-03-15T12:36:44.324Z,8.03
2019-03-15T12:39:12.534Z,7.80
2019-03-15T12:41:40.827Z,7.97
2019-03-15T12:44:10.539Z,7.67
2019-03-15T12:46:38.922Z,7.10
2019-03-15T12:49:07.915Z,7.57
2019-03-15T12:51:36.369Z,6.37
2019-03-15T12:54:04.927Z,6.33
2019-03-15T12:56:33.201Z,6.60
2019-03-15T12:59:01.780Z,7.40
2019-03-15T13:01:30.203Z,6.77
2019-03-15T13:03:58.270Z,6.70
2019-03-15T13:06:26.391Z,6.03
2019-03-15T13:08:54.518Z,6.57
2019-03-15T13:11:22.822Z,5.73
2019-03-15T13:13:52.220Z,6.23
2019-03-15T13:16:20.368Z,6.23
2019-03-15T13:18:48.429Z,5.50
2019-03-15T13:21:16.618Z,5.50
2019-03-15T13:23:47.184Z,5.23
2019-03-15T13:26:15.337Z,4.60
2019-03-15T13:28:43.484Z,4.73
2019-03-15T13:31:11.563Z,4.50
2019-03-15T13:33:39.653Z,4.17
2019-03-15T13:36:08.290Z,3.30
2019-03-15T13:38:36.475Z,3.80
2019-03-15T13:41:05.677Z,2.73
2019-03-15T13:43:33.892Z,2.87
2019-03-15T13:46:02.055Z,3.10
2019-03-15T13:48:30.251Z,2.97
2019-03-15T13:50:58.374Z,2.30
2019-03-15T13:53:27.584Z,2.97
2019-03-15T13:55:55.804Z,2.77
2019-03-15T13:58:27.415Z,2.87
2019-03-15T14:00:55.627Z,2.90
2019-03-15T14:03:23.719Z,3.23
2019-03-15T14:05:51.780Z,2.97
2019-03-15T14:08:19.821Z,2.23
2019-03-15T14:10:49.664Z,3.40
2019-03-15T14:13:18.032Z,2.50
2019-03-15T14:15:46.099Z,2.90
2019-03-15T14:18:15.241Z,2.30
2019-03-15T14:20:43.446Z,2.70
2019-03-15T14:23:11.649Z,2.80
2019-03-15T14:25:41.148Z,3.33
2019-03-15T14:28:09.328Z,2.27
2019-03-15T14:30:37.408Z,2.30
2019-03-15T14:33:05.711Z,3.03
2019-03-15T14:35:33.829Z,2.60
2019-03-15T14:38:02.023Z,3.00
2019-03-15T14:40:30.449Z,2.77
2019-03-15T14:42:58.733Z,2.73
2019-03-15T14:45:28.225Z,3.00
2019-03-15T14:47:56.400Z,3.27
2019-03-15T14:50:24.473Z,3.20
2019-03-15T14:52:52.658Z,2.80
2019-03-15T14:55:23.659Z,3.53
2019-03-15T14:57:53.327Z,3.10
2019-03-15T15:00:21.847Z,3.10
2019-03-15T15:02:50.109Z,2.83
2019-03-15T15:05:18.502Z,3.00
2019-03-15T15:07:46.575Z,3.10
2019-03-15T15:10:14.700Z,2.93
2019-03-15T15:12:43.318Z,4.00
2019-03-15T15:15:11.857Z,3.73
2019-03-15T15:17:42.712Z,3.60
2019-03-15T15:20:11.596Z,2.97
2019-03-15T15:22:39.914Z,3.30
2019-03-15T15:25:08.490Z,3.50
2019-03-15T15:27:37.502Z,3.60
2019-03-15T15:30:06.243Z,3.97
2019-03-15T15:32:34.375Z,3.20
2019-03-15T15:35:02.562Z,4.27
2019-03-15T15:37:30.631Z,3.57
2019-03-15T15:40:00.276Z,4.00
2019-03-15T15:42:28.495Z,3.40
2019-03-15T15:44:56.674Z,3.23
2019-03-15T15:47:24.827Z,3.30
2019-03-15T15:49:52.977Z,3.50
2019-03-15T15:52:21.054Z,3.90
2019-03-15T15:54:49.204Z,3.77
2019-03-15T15:57:17.270Z,3.90
2019-03-15T15:59:46.211Z,4.00
2019-03-15T16:02:14.262Z,3.33
2019-03-15T16:04:42.355Z,3.80
2019-03-15T16:07:10.413Z,4.00
2019-03-15T16:09:38.562Z,4.23
2019-03-15T16:12:06.711Z,3.13
2019-03-15T16:14:34.799Z,3.03
2019-03-15T16:17:02.978Z,3.57
2019-03-15T16:19:31.097Z,3.57
2019-03-15T16:21:59.190Z,3.73
2019-03-15T16:24:27.416Z,4.10
2019-03-15T16:26:55.610Z,4.00
2019-03-15T16:29:23.794Z,4.20
2019-03-15T16:31:51.920Z,3.97
2019-03-15T16:34:21.983Z,4.60
2019-03-15T16:36:50.010Z,4.23
2019-03-15T16:39:18.879Z,4.67
2019-03-15T16:41:47.030Z,4.50
2019-03-15T16:44:16.079Z,3.90
2019-03-15T16:46:44.174Z,4.43
2019-03-15T16:49:12.196Z,4.70
2019-03-15T16:51:40.367Z,3.93
2019-03-15T16:54:08.426Z,3.53
2019-03-15T16:56:36.509Z,4.20
2019-03-15T16:59:04.703Z,3.90
2019-03-15T17:01:34.442Z,3.80
2019-03-15T17:04:02.700Z,4.37
2019-03-15T17:06:30.777Z,4.27
2019-03-15T17:08:58.866Z,3.30
2019-03-15T17:11:27.024Z,4.30
2019-03-15T17:13:55.145Z,4.47
2019-03-15T17:16:23.215Z,3.60
2019-03-15T17:18:51.355Z,3.83
2019-03-15T17:21:19.522Z,4.57
2019-03-15T17:23:47.640Z,4.10
2019-03-15T17:26:15.748Z,3.70
2019-03-15T17:28:43.858Z,4.73
2019-03-15T17:31:12.382Z,3.93
2019-03-15T17:33:40.430Z,4.60
2019-03-15T17:36:08.567Z,4.50
2019-03-15T17:38:36.606Z,4.30
2019-03-15T17:41:04.650Z,3.93
2019-03-15T17:43:34.845Z,5.20
2019-03-15T17:46:03.277Z,4.67
2019-03-15T17:48:33.728Z,4.90
2019-03-15T17:51:03.238Z,5.17
2019-03-15T17:53:31.403Z,4.50
2019-03-15T17:55:59.552Z,4.73
2019-03-15T17:58:28.670Z,4.60
2019-03-15T18:00:58.349Z,4.57
2019-03-15T18:03:26.537Z,5.80
2019-03-15T18:05:54.645Z,4.47
2019-03-15T18:08:23.063Z,5.20
2019-03-15T18:10:51.152Z,4.53
2019-03-15T18:13:19.380Z,4.83
2019-03-15T18:15:47.501Z,4.30
2019-03-15T18:18:15.612Z,4.47
2019-03-15T18:20:43.657Z,5.03
2019-03-15T18:23:11.703Z,4.57
2019-03-15T18:25:39.845Z,4.40
2019-03-15T18:28:08.005Z,4.47
2019-03-15T18:30:36.083Z,4.93
2019-03-15T18:33:04.235Z,5.10
2019-03-15T18:35:33.913Z,5.10
2019-03-15T18:38:02.309Z,5.23
2019-03-15T18:40:30.387Z,5.37
2019-03-15T18:42:58.394Z,5.37
2019-03-15T18:45:26.556Z,4.80
2019-03-15T18:47:54.920Z,5.87
2019-03-15T18:50:23.247Z,4.57
2019-03-15T18:52:51.318Z,5.63
2019-03-15T18:55:19.353Z,4.20
2019-03-15T18:57:47.475Z,4.60
2019-03-15T19:00:18.470Z,4.07
2019-03-15T19:02:49.790Z,4.27
2019-03-15T19:05:18.039Z,4.67
2019-03-15T19:07:46.897Z,4.10
2019-03-15T19:10:16.597Z,4.37
2019-03-15T19:12:44.955Z,4.57
2019-03-15T19:15:13.378Z,4.70
2019-03-15T19:17:41.631Z,5.00
2019-03-15T19:20:10.043Z,5.13
2019-03-15T19:22:38.231Z,4.40
2019-03-15T19:25:06.828Z,5.30
2019-03-15T19:27:35.355Z,4.50
2019-03-15T19:30:05.945Z,5.70
2019-03-15T19:32:34.398Z,4.77
2019-03-15T19:35:02.545Z,5.50
2019-03-15T19:37:30.833Z,5.93
2019-03-15T19:40:00.107Z,5.23
2019-03-15T19:42:29.276Z,5.10
2019-03-15T19:44:57.445Z,5.43
2019-03-15T19:47:25.685Z,4.80
2019-03-15T19:49:53.849Z,5.60
2019-03-15T19:52:21.969Z,5.13
2019-03-15T19:54:59.998Z,5.30
2019-03-15T19:57:20.429Z,5.07
2019-03-15T19:59:48.508Z,4.90
2019-03-15T20:02:16.671Z,6.13
2019-03-15T20:04:44.780Z,6.07
2019-03-15T20:07:12.856Z,6.17
2019-03-15T20:09:41.120Z,5.60
2019-03-15T20:12:09.645Z,5.50
2019-03-15T20:14:37.731Z,5.50
2019-03-15T20:17:06.123Z,6.33
2019-03-15T20:19:34.269Z,5.23
2019-03-15T20:22:02.418Z,5.40
2019-03-15T20:24:30.591Z,5.80
2019-03-15T20:26:59.808Z,5.83
2019-03-15T20:29:28.028Z,6.13
2019-03-15T20:31:56.280Z,5.60
2019-03-15T20:34:24.592Z,5.87
2019-03-15T20:36:52.775Z,5.93
2019-03-15T20:39:21.911Z,6.37
2019-03-15T20:41:50.068Z,5.57
2019-03-15T20:44:27.834Z,6.17
2019-03-15T20:46:48.168Z,5.77
2019-03-15T20:49:16.244Z,6.80
2019-03-15T20:51:44.416Z,6.23
2019-03-15T20:54:12.528Z,5.60
2019-03-15T20:56:40.627Z,6.47
2019-03-15T20:59:11.040Z,5.50
2019-03-15T21:01:39.344Z,5.47
2019-03-15T21:04:07.554Z,5.23
2019-03-15T21:06:35.750Z,6.10
2019-03-15T21:09:06.599Z,6.10
2019-03-15T21:11:35.681Z,5.73
2019-03-15T21:14:04.012Z,5.17
2019-03-15T21:16:32.126Z,5.50
2019-03-15T21:19:00.204Z,5.77
2019-03-15T21:21:28.211Z,6.33
2019-03-15T21:23:56.345Z,5.67
2019-03-15T21:26:26.547Z,4.43
2019-03-15T21:28:54.706Z,5.23
2019-03-15T21:31:22.798Z,5.47
2019-03-15T21:33:50.841Z,5.13
2019-03-15T21:36:18.922Z,5.70
2019-03-15T21:38:48.408Z,5.73
2019-03-15T21:41:16.891Z,6.27
2019-03-15T21:43:45.164Z,6.90
2019-03-15T21:46:13.299Z,6.57
2019-03-15T21:48:41.417Z,5.40
2019-03-15T21:51:09.521Z,5.53
2019-03-15T21:53:37.572Z,5.90
2019-03-15T21:56:05.790Z,5.17
2019-03-15T21:58:33.875Z,7.05
2019-03-15T22:01:02.913Z,5.97
2019-03-15T22:03:31.358Z,5.40
2019-03-15T22:05:59.710Z,5.37
2019-03-15T22:08:27.773Z,5.77
2019-03-15T22:10:55.985Z,6.73
2019-03-15T22:13:24.128Z,7.13
2019-03-15T22:15:52.312Z,5.90
2019-03-15T22:18:20.410Z,5.30
2019-03-15T22:20:48.525Z,6.33
2019-03-15T22:23:16.690Z,5.50
2019-03-15T22:25:44.759Z,5.73
2019-03-15T22:28:12.861Z,5.50
2019-03-15T22:30:40.900Z,5.70
2019-03-15T22:33:08.959Z,5.60
2019-03-15T22:35:37.031Z,5.77
2019-03-15T22:38:05.110Z,6.10
2019-03-15T22:40:33.622Z,5.10
2019-03-15T22:43:04.690Z,5.63
2019-03-15T22:45:34.184Z,6.27
2019-03-15T22:48:04.019Z,5.20
2019-03-15T22:50:32.249Z,5.77
2019-03-15T22:53:00.330Z,6.47
2019-03-15T22:55:29.398Z,5.53
2019-03-15T22:58:00.041Z,6.30
2019-03-15T23:00:35.163Z,6.20
2019-03-15T23:03:05.757Z,6.23
2019-03-15T23:05:34.089Z,6.50
2019-03-15T23:08:02.251Z,6.67
2019-03-15T23:10:31.335Z,5.70
2019-03-15T23:12:59.542Z,6.20
2019-03-15T23:15:27.693Z,5.63
2019-03-15T23:17:55.816Z,6.37
2019-03-15T23:20:23.944Z,5.63
2019-03-15T23:22:54.699Z,5.30
2019-03-15T23:25:22.298Z,6.00
2019-03-15T23:27:50.475Z,5.90
2019-03-15T23:30:20.119Z,6.00
2019-03-15T23:32:48.196Z,6.03
2019-03-15T23:35:16.372Z,5.60
2019-03-15T23:37:44.495Z,6.10
2019-03-15T23:40:12.784Z,5.37
2019-03-15T23:42:41.045Z,5.67
2019-03-15T23:45:09.266Z,5.80
2019-03-15T23:47:37.364Z,6.40
2019-03-15T23:50:05.952Z,6.20
2019-03-15T23:52:34.036Z,5.03
2019-03-15T23:55:02.070Z,6.13
2019-03-15T23:57:30.702Z,5.73
2019-03-15T23:59:58.803Z,5.57
